Time;durP1;ratioP1;P1;durP2;ratioP2;P2;SDS_P1;SDS_P2;PMS_P1;PMS_P2;Temp;Humidity;BMP_temperature;BMP_pressure;BME280_temperature;BME280_humidity;BME280_pressure;Samples;Min_cycle;Max_cycle;Signal;HPM_P1;HPM_P2
2020/12/10 11:46:19;;;;;;;48.23;25.97;;;;;;;4.16;92.27;97970.34;5246534;22;20537;-78
2020/12/10 11:48:46;;;;;;;50.33;26.40;;;;;;;5.00;91.22;97972.84;5126107;27;39947;-81
2020/12/10 11:51:17;;;;;;;43.83;26.90;;;;;;;5.88;86.67;97971.44;5108206;27;42664;-81
2020/12/10 11:53:45;;;;;;;43.97;26.00;;;;;;;6.19;81.72;97958.22;5108185;27;43619;-81
2020/12/10 11:56:12;;;;;;;44.33;26.17;;;;;;;6.29;79.76;97945.41;5124737;27;42149;-81
2020/12/10 11:58:39;;;;;;;37.57;24.30;;;;;;;6.63;78.34;97968.72;5159997;22;39702;-81
2020/12/10 12:01:06;;;;;;;38.73;23.43;;;;;;;6.66;77.27;97965.91;5001240;27;42254;-80
2020/12/10 12:03:34;;;;;;;36.17;22.93;;;;;;;6.74;76.11;97989.09;5020735;28;42874;-80
2020/12/10 12:06:01;;;;;;;40.23;24.67;;;;;;;6.78;75.60;97970.44;5031756;27;41810;-82
2020/12/10 12:08:28;;;;;;;38.53;23.43;;;;;;;6.95;74.69;97979.03;5020907;28;40919;-82
2020/12/10 12:10:56;;;;;;;42.37;25.00;;;;;;;6.97;73.07;97995.59;5151055;22;41546;-81
2020/12/10 12:13:23;;;;;;;38.07;24.17;;;;;;;7.08;73.86;97972.09;5063402;28;42817;-80
2020/12/10 12:15:50;;;;;;;39.87;23.60;;;;;;;7.23;72.13;97986.94;5080476;28;42666;-79
2020/12/10 12:18:17;;;;;;;39.67;23.73;;;;;;;7.33;72.24;97979.28;5063804;28;39946;-79
2020/12/10 12:20:45;;;;;;;36.60;23.60;;;;;;;7.26;71.73;97960.41;5156261;22;41518;31
2020/12/10 12:23:13;;;;;;;36.37;22.40;;;;;;;7.32;72.09;97974.97;5100814;28;43287;-80
2020/12/10 12:25:40;;;;;;;36.40;22.90;;;;;;;7.10;71.74;97951.78;5103538;28;41740;-80
2020/12/10 12:28:07;;;;;;;36.10;22.17;;;;;;;7.20;71.67;97971.31;5104831;28;40018;-79
2020/12/10 12:30:35;;;;;;;35.80;21.33;;;;;;;6.97;72.28;97932.41;5102699;28;41882;-80
2020/12/10 12:33:03;;;;;;;34.30;20.50;;;;;;;7.10;72.11;97971.06;5157849;22;45052;-79
2020/12/10 12:35:30;;;;;;;33.87;21.47;;;;;;;6.63;71.05;97931.91;5066422;28;42090;-80
2020/12/10 12:37:58;;;;;;;36.80;23.33;;;;;;;6.81;71.39;97972.84;5066238;28;41121;-79
2020/12/10 12:40:26;;;;;;;39.63;24.13;;;;;;;6.72;70.71;97972.56;5084446;28;42037;-79
2020/12/10 12:42:53;;;;;;;41.87;24.90;;;;;;;6.56;71.25;97971.78;5081205;28;43097;-79
2020/12/10 12:45:20;;;;;;;38.13;23.93;;;;;;;6.60;71.96;97970.69;5163951;22;43335;-79
2020/12/10 12:47:47;;;;;;;38.50;23.87;;;;;;;6.54;71.03;97971.91;5103799;28;39662;-79
2020/12/10 12:50:14;;;;;;;37.10;21.97;;;;;;;6.45;71.67;97975.06;5104678;27;41660;-85
2020/12/10 12:52:43;;;;;;;34.40;22.80;;;;;;;6.28;71.47;97970.84;5083102;28;44201;-80
2020/12/10 12:55:10;;;;;;;37.27;22.10;;;;;;;6.22;71.66;97971.19;5083946;28;42032;-80
2020/12/10 12:57:38;;;;;;;38.73;24.47;;;;;;;6.08;71.14;97982.50;5278550;22;39743;-79
2020/12/10 13:00:05;;;;;;;34.57;23.67;;;;;;;6.02;71.92;97980.25;5089534;28;41555;-77
2020/12/10 13:02:34;;;;;;;38.40;22.77;;;;;;;5.99;72.15;97969.91;5090795;28;42517;-78
2020/12/10 13:05:01;;;;;;;34.30;20.83;;;;;;;5.93;71.74;97975.53;5089667;28;41880;-83
2020/12/10 13:07:29;;;;;;;37.43;23.20;;;;;;;5.86;71.84;97982.03;5089739;28;40475;-77
2020/12/10 13:09:56;;;;;;;36.83;21.87;;;;;;;5.81;71.28;97986.69;5159684;22;41604;-79
2020/12/10 13:12:23;;;;;;;35.27;20.37;;;;;;;5.64;71.60;97963.19;5069253;28;43120;-79
2020/12/10 13:14:52;;;;;;;31.00;19.57;;;;;;;5.66;71.61;97977.94;5065567;28;42276;-80
2020/12/10 13:17:19;;;;;;;28.97;17.63;;;;;;;5.53;71.11;97961.16;5064163;28;39557;-79
2020/12/10 13:19:48;;;;;;;29.80;19.87;;;;;;;5.59;71.50;97973.09;5149763;22;42375;-80
2020/12/10 13:22:15;;;;;;;28.73;19.00;;;;;;;5.64;72.11;97978.94;4998686;28;43307;-78
2020/12/10 13:24:42;;;;;;;30.80;18.60;;;;;;;5.53;71.50;97962.94;4980797;28;43204;-78
2020/12/10 13:27:10;;;;;;;27.60;18.03;;;;;;;5.60;71.69;97977.41;4977474;28;39962;-83
2020/12/10 13:29:37;;;;;;;29.27;19.90;;;;;;;5.48;71.79;97959.72;4969747;28;41436;-81
2020/12/10 13:32:05;;;;;;;31.30;20.00;;;;;;;5.56;72.10;97981.16;5089606;22;43765;-82
2020/12/10 13:34:32;;;;;;;32.97;21.23;;;;;;;5.54;72.21;97986.50;5051862;28;42638;-82
2020/12/10 13:37:00;;;;;;;31.80;19.87;;;;;;;5.50;71.95;97976.25;5070403;28;41711;-83
2020/12/10 13:39:27;;;;;;;32.37;21.10;;;;;;;5.49;72.19;97979.78;5069250;28;41708;-81
2020/12/10 13:41:54;;;;;;;28.20;19.03;;;;;;;5.51;72.37;97981.41;5086366;28;43658;-79
2020/12/10 13:44:21;;;;;;;29.00;19.23;;;;;;;5.52;72.31;97982.25;5097177;22;42779;-81
2020/12/10 13:46:49;;;;;;;28.10;18.67;;;;;;;5.43;72.23;97974.91;4970267;28;40632;-81
2020/12/10 13:49:17;;;;;;;29.40;19.43;;;;;;;5.52;71.98;98001.50;4971012;28;42126;-83
2020/12/10 13:51:44;;;;;;;27.73;19.37;;;;;;;5.48;71.69;97999.97;4991240;28;43461;-81
2020/12/10 13:54:11;;;;;;;30.47;19.90;;;;;;;5.27;71.60;97974.91;4981788;28;43644;-83
2020/12/10 13:56:39;;;;;;;29.57;19.47;;;;;;;5.31;71.67;97997.44;5044063;22;40256;-81
2020/12/10 13:59:06;;;;;;;26.53;17.70;;;;;;;5.12;72.01;97958.22;4958348;28;42578;-80
2020/12/10 14:01:33;;;;;;;30.10;19.43;;;;;;;5.25;72.27;97982.00;4974163;28;43657;-79
2020/12/10 14:04:00;;;;;;;26.30;17.83;;;;;;;5.34;72.19;97992.84;4960461;28;43958;-82
2020/12/10 14:06:28;;;;;;;25.83;18.00;;;;;;;5.32;71.82;97988.59;5055359;22;40093;-80
2020/12/10 14:08:56;;;;;;;29.97;19.63;;;;;;;5.09;71.88;97966.25;5099215;28;42899;-83
2020/12/10 14:11:25;;;;;;;26.37;18.43;;;;;;;5.14;72.05;97979.97;5072691;28;44366;-79
2020/12/10 14:13:53;;;;;;;25.00;16.53;;;;;;;5.24;71.97;97990.81;5089044;28;42127;-82
2020/12/10 14:16:21;;;;;;;25.17;17.63;;;;;;;5.14;72.12;97969.47;5090566;28;39799;-81
2020/12/10 14:18:49;;;;;;;26.50;18.87;;;;;;;5.25;71.94;97988.09;5147579;22;42393;-79
2020/12/10 14:21:19;;;;;;;25.40;16.83;;;;;;;5.22;72.37;97983.03;5068508;28;43426;-81
2020/12/10 14:23:47;;;;;;;24.00;16.77;;;;;;;5.23;72.43;97991.75;5084947;28;42015;-84
2020/12/10 14:26:14;;;;;;;24.23;16.47;;;;;;;5.15;72.18;97975.56;5068357;28;39563;-81
2020/12/10 14:28:42;;;;;;;26.63;17.37;;;;;;;5.22;72.28;97988.28;5069135;28;41384;-80
2020/12/10 14:31:09;;;;;;;26.03;17.50;;;;;;;5.21;72.22;97994.44;5096778;22;43456;-84
2020/12/10 14:33:37;;;;;;;23.43;16.37;;;;;;;5.19;72.30;97991.09;5020094;28;42623;-83
2020/12/10 14:36:05;;;;;;;22.67;16.03;;;;;;;5.18;72.33;97991.16;4988932;28;41182;-80
2020/12/10 14:38:34;;;;;;;23.80;16.47;;;;;;;5.16;72.28;97993.88;5006327;28;42281;-82
2020/12/10 15:26:13;;;;;;;28.63;18.37;;;;;;;2.20;84.60;98017.03;5148149;27;20528;-82
